Time;durP1;ratioP1;P1;durP2;ratioP2;P2;SDS_P1;SDS_P2;PMS_P1;PMS_P2;Temp;Humidity;BMP_temperature;BMP_pressure;BME280_temperature;BME280_humidity;BME280_pressure;Samples;Min_cycle;Max_cycle;Signal;HPM_P1;HPM_P2
2021/09/03 00:00:09;;;;;;;;;20.25;19.25;;;;;21.59;100.00;101729.16;5059570;28;46093;-65
2021/09/03 00:02:36;;;;;;;;;24.25;20.50;;;;;21.57;100.00;101730.16;5059656;28;45617;-65
2021/09/03 00:05:03;;;;;;;;;20.25;18.75;;;;;21.52;100.00;101725.03;5059720;28;45331;-65
2021/09/03 00:07:29;;;;;;;;;20.25;18.50;;;;;21.49;100.00;101719.84;5059688;28;45345;-65
2021/09/03 00:09:54;;;;;;;;;21.00;20.75;;;;;21.48;100.00;101723.44;5058233;28;46414;-65
2021/09/03 00:12:20;;;;;;;;;21.50;19.50;;;;;21.48;100.00;101728.75;5059656;28;45482;-65
2021/09/03 00:18:06;;;;;;;;;22.00;19.00;;;;;21.35;100.00;101720.47;5059636;28;45293;-65
2021/09/03 00:20:32;;;;;;;;;19.00;18.75;;;;;21.31;100.00;101718.00;5059604;28;45378;-66
2021/09/03 00:22:57;;;;;;;;;21.00;19.50;;;;;21.34;100.00;101724.06;5059302;28;45475;-65
2021/09/03 00:25:23;;;;;;;;;23.25;20.25;;;;;21.31;100.00;101721.53;5059531;28;45546;-65
2021/09/03 00:27:48;;;;;;;;;24.75;20.25;;;;;21.27;100.00;101717.25;5075241;28;45366;-65
2021/09/03 00:30:13;;;;;;;;;22.00;21.00;;;;;21.26;100.00;101712.88;5059517;28;45533;-65
2021/09/03 00:32:39;;;;;;;;;22.75;21.00;;;;;21.24;100.00;101717.38;5059034;28;45344;-65
2021/09/03 00:35:06;;;;;;;;;23.00;22.00;;;;;21.15;100.00;101698.31;5059240;28;45296;-65
2021/09/03 00:37:32;;;;;;;;;23.00;21.00;;;;;21.09;100.00;101691.47;5059408;28;45527;-66
2021/09/03 00:39:58;;;;;;;;;25.50;21.25;;;;;21.13;100.00;101697.50;5058984;28;46307;-66
2021/09/03 00:42:23;;;;;;;;;25.25;24.00;;;;;21.15;100.00;101709.78;5058617;28;45259;-66
2021/09/03 00:48:10;;;;;;;;;19.75;19.00;;;;;21.10;100.00;101698.50;5059135;28;45388;-66
2021/09/03 00:50:36;;;;;;;;;23.75;20.25;;;;;21.06;100.00;101695.13;5074513;28;48300;-66
2021/09/03 00:53:03;;;;;;;;;20.75;20.50;;;;;20.92;100.00;101678.03;5058716;28;45320;-66
2021/09/03 00:55:29;;;;;;;;;20.25;19.75;;;;;20.93;100.00;101680.63;5059014;28;45448;-66
2021/09/03 00:57:54;;;;;;;;;26.00;20.50;;;;;20.91;100.00;101681.63;5059237;28;45389;-66
2021/09/03 01:00:20;;;;;;;;;22.50;21.00;;;;;20.88;100.00;101672.00;5057437;28;46387;-66
2021/09/03 01:02:46;;;;;;;;;21.50;19.25;;;;;20.80;100.00;101668.78;5058713;28;45443;-66
2021/09/03 01:05:11;;;;;;;;;24.75;22.75;;;;;20.84;100.00;101685.47;5058795;28;45396;-66
2021/09/03 01:07:37;;;;;;;;;24.00;22.50;;;;;20.78;100.00;101682.13;5058893;28;45600;-66
2021/09/03 01:10:04;;;;;;;;;29.50;25.00;;;;;20.69;100.00;101665.75;5058697;28;46354;-67
2021/09/03 01:12:29;;;;;;;;;24.00;22.50;;;;;20.74;100.00;101680.53;5058898;28;45645;-66
2021/09/03 01:18:16;;;;;;;;;24.00;21.25;;;;;20.66;100.00;101677.34;5058564;28;45344;-66
2021/09/03 01:20:42;;;;;;;;;29.25;24.25;;;;;20.63;100.00;101672.16;5058267;28;47047;-66
2021/09/03 01:23:07;;;;;;;;;21.50;20.00;;;;;20.51;100.00;101659.38;5058612;28;45317;-66
2021/09/03 01:25:32;;;;;;;;;22.00;21.50;;;;;20.55;100.00;101670.75;5058567;28;45466;-66
2021/09/03 01:27:58;;;;;;;;;25.00;22.50;;;;;20.56;100.00;101675.13;5058652;28;45421;-66
2021/09/03 01:30:23;;;;;;;;;25.25;21.75;;;;;20.54;100.00;101677.84;5058423;28;46438;-66
2021/09/03 01:32:49;;;;;;;;;24.50;22.25;;;;;20.52;100.00;101669.06;5058422;28;45352;-66
2021/09/03 01:35:16;;;;;;;;;26.00;23.75;;;;;20.52;100.00;101670.88;5058136;28;45248;-66
2021/09/03 01:37:42;;;;;;;;;26.00;25.00;;;;;20.48;100.00;101671.00;5058422;28;45566;-66
2021/09/03 01:40:08;;;;;;;;;25.75;19.75;;;;;20.40;100.00;101657.19;5058128;28;46403;-67
2021/09/03 01:42:34;;;;;;;;;23.25;20.75;;;;;20.42;100.00;101659.78;5058128;28;45646;-67
2021/09/03 01:48:21;;;;;;;;;28.00;26.50;;;;;20.34;100.00;101646.78;5058363;28;45265;-67
2021/09/03 01:50:46;;;;;;;;;25.50;22.75;;;;;20.35;100.00;101656.44;5058131;28;45271;-66
2021/09/03 01:53:12;;;;;;;;;22.50;21.25;;;;;20.33;100.00;101658.31;5058317;28;45347;-67
2021/09/03 01:55:37;;;;;;;;;26.25;22.00;;;;;20.27;100.00;101655.03;5058021;28;45479;-67
2021/09/03 01:58:03;;;;;;;;;21.00;21.00;;;;;20.20;100.00;101646.47;5058108;28;45243;-66
2021/09/03 02:00:28;;;;;;;;;26.50;22.25;;;;;20.19;100.00;101655.34;5058086;28;46479;-67
2021/09/03 02:02:54;;;;;;;;;24.00;23.00;;;;;20.22;100.00;101659.69;5057607;28;45270;-67
2021/09/03 02:05:19;;;;;;;;;25.50;22.75;;;;;20.18;100.00;101662.44;5057945;28;45384;-67
2021/09/03 02:07:44;;;;;;;;;25.50;23.25;;;;;20.16;100.00;101668.75;5040257;28;45346;-66
2021/09/03 02:10:10;;;;;;;;;26.00;24.25;;;;;20.09;100.00;101660.13;5057946;28;46555;-65
2021/09/03 02:12:36;;;;;;;;;29.50;26.50;;;;;20.06;100.00;101662.91;5057541;28;45750;-65
2021/09/03 02:18:23;;;;;;;;;22.75;21.50;;;;;19.96;100.00;101655.41;5057816;28;45415;-65
2021/09/03 02:20:48;;;;;;;;;25.00;23.25;;;;;19.96;100.00;101652.75;5057754;28;45505;-66
2021/09/03 02:23:14;;;;;;;;;23.25;21.25;;;;;19.95;100.00;101658.97;5057647;28;45304;-65
2021/09/03 02:25:39;;;;;;;;;27.75;25.00;;;;;19.92;100.00;101657.31;5057634;28;45345;-66
2021/09/03 02:28:05;;;;;;;;;23.50;22.25;;;;;19.84;100.00;101646.13;5057914;28;45328;-65
2021/09/03 02:33:52;;;;;;;;;28.50;26.75;;;;;19.84;100.00;101644.31;5057119;28;45668;-65
2021/09/03 02:36:18;;;;;;;;;26.25;24.25;;;;;19.86;100.00;101646.91;5037522;28;45283;-66
2021/09/03 02:38:44;;;;;;;;;26.25;22.75;;;;;19.82;100.00;101646.19;5037364;28;45359;-66
2021/09/03 02:41:10;;;;;;;;;25.25;24.25;;;;;19.76;100.00;101641.13;5037154;28;45665;-66
2021/09/03 02:43:35;;;;;;;;;26.50;25.00;;;;;19.74;100.00;101647.41;5036938;28;45433;-66
2021/09/03 02:46:01;;;;;;;;;27.50;26.25;;;;;19.73;100.00;101646.53;5037099;28;45321;-68
2021/09/03 02:48:26;;;;;;;;;24.25;23.00;;;;;19.69;100.00;101644.03;5037409;28;45267;-66
2021/09/03 02:50:52;;;;;;;;;25.00;24.00;;;;;19.62;100.00;101634.59;5036764;28;46069;-66
2021/09/03 02:53:17;;;;;;;;;28.00;25.00;;;;;19.53;100.00;101625.19;5037031;28;45475;-66
2021/09/03 02:55:42;;;;;;;;;36.00;25.75;;;;;19.54;100.00;101629.59;5035705;28;45347;-66
2021/09/03 02:58:08;;;;;;;;;27.00;24.75;;;;;19.57;100.00;101640.06;5037398;28;45460;-66
2021/09/03 03:03:55;;;;;;;;;28.25;25.50;;;;;19.50;100.00;101647.38;5036610;28;45772;-66
2021/09/03 03:06:20;;;;;;;;;27.00;23.25;;;;;19.47;100.00;101644.84;5037692;28;45311;-66
2021/09/03 03:08:45;;;;;;;;;24.00;23.25;;;;;19.40;100.00;101640.66;5040512;28;45438;-66
2021/09/03 03:11:11;;;;;;;;;28.25;27.75;;;;;19.35;100.00;101641.75;5040171;28;47012;-66
2021/09/03 03:13:36;;;;;;;;;29.00;26.50;;;;;19.24;100.00;101635.06;5040123;28;45377;-66
2021/09/03 03:16:02;;;;;;;;;25.25;25.00;;;;;19.26;100.00;101641.16;5040409;28;45398;-66
2021/09/03 03:18:27;;;;;;;;;28.75;26.00;;;;;19.23;100.00;101638.59;5040378;28;45368;-66
2021/09/03 03:20:53;;;;;;;;;28.25;25.75;;;;;19.15;100.00;101624.78;5038813;28;46186;-66
2021/09/03 03:23:19;;;;;;;;;27.00;25.25;;;;;19.12;100.00;101630.19;5040430;28;45343;-67
2021/09/03 03:25:44;;;;;;;;;27.75;26.00;;;;;19.20;100.00;101636.06;5040306;28;45271;-65
2021/09/03 03:28:10;;;;;;;;;32.00;29.50;;;;;19.11;100.00;101612.59;5040348;28;45522;-66
2021/09/03 03:33:59;;;;;;;;;28.50;24.00;;;;;19.17;100.00;101636.19;5040196;28;45791;-66
2021/09/03 03:36:24;;;;;;;;;30.50;27.75;;;;;19.13;100.00;101628.41;5060377;28;45401;-66
2021/09/03 03:38:50;;;;;;;;;31.00;29.75;;;;;19.12;100.00;101632.84;5060586;28;45400;-66
2021/09/03 03:41:15;;;;;;;;;30.25;28.50;;;;;19.10;100.00;101633.81;5060293;28;45376;-66
2021/09/03 03:43:40;;;;;;;;;30.50;26.25;;;;;19.07;100.00;101629.50;5060174;28;45206;-66
2021/09/03 03:46:08;;;;;;;;;29.25;27.75;;;;;19.04;100.00;101628.75;5060043;28;45295;-66
2021/09/03 03:48:37;;;;;;;;;32.50;28.50;;;;;19.03;100.00;101625.25;5060266;28;45331;-66
2021/09/03 03:51:02;;;;;;;;;32.00;28.00;;;;;18.98;100.00;101622.72;5059816;28;47025;-66
2021/09/03 03:53:28;;;;;;;;;37.25;29.50;;;;;18.93;100.00;101608.81;5059961;28;45424;-66
2021/09/03 03:55:53;;;;;;;;;33.00;28.75;;;;;18.90;100.00;101608.06;5060096;28;45352;-66
2021/09/03 03:58:18;;;;;;;;;32.25;28.50;;;;;18.95;100.00;101616.69;5059916;28;45344;-66
2021/09/03 04:04:05;;;;;;;;;35.75;30.75;;;;;18.90;100.00;101614.22;5059732;28;45347;-66
2021/09/03 04:06:31;;;;;;;;;32.00;28.75;;;;;18.81;100.00;101605.75;5059762;28;45494;-67
2021/09/03 04:08:56;;;;;;;;;28.25;27.00;;;;;18.82;100.00;101610.97;5059921;28;45355;-65
2021/09/03 04:11:21;;;;;;;;;31.25;29.00;;;;;18.77;100.00;101609.38;5059671;28;45360;-66
2021/09/03 04:13:47;;;;;;;;;31.75;29.25;;;;;18.79;100.00;101615.50;5059460;28;45324;-66
2021/09/03 04:19:34;;;;;;;;;34.00;31.00;;;;;18.53;100.00;101585.47;5059727;28;45454;-66
2021/09/03 04:21:59;;;;;;;;;30.50;28.75;;;;;18.71;100.00;101614.88;5059279;28;46152;-66
2021/09/03 04:24:24;;;;;;;;;32.25;29.50;;;;;18.70;100.00;101615.81;5059691;28;45445;-67
2021/09/03 04:26:50;;;;;;;;;33.25;27.50;;;;;18.64;100.00;101606.31;5059662;28;45325;-66
2021/09/03 04:29:15;;;;;;;;;32.25;30.25;;;;;18.64;100.00;101620.41;5059835;28;45357;-66
2021/09/03 04:31:41;;;;;;;;;34.25;30.25;;;;;18.55;100.00;101614.50;5059395;28;45380;-66
2021/09/03 04:34:06;;;;;;;;;29.25;28.25;;;;;18.56;100.00;101630.34;5058915;28;45620;-66
2021/09/03 04:36:31;;;;;;;;;37.50;31.25;;;;;18.51;100.00;101631.38;5059317;28;45331;-66
2021/09/03 04:38:57;;;;;;;;;26.25;26.00;;;;;18.47;100.00;101627.13;5059361;28;45519;-66
2021/09/03 04:41:22;;;;;;;;;39.50;29.50;;;;;18.42;100.00;101635.22;5059029;28;46132;-66
2021/09/03 04:43:48;;;;;;;;;32.50;29.00;;;;;18.33;100.00;101625.81;5058937;28;45355;-66
2021/09/03 04:49:34;;;;;;;;;65.50;52.75;;;;;18.31;100.00;101632.91;5059149;28;45344;-66
2021/09/03 04:52:00;;;;;;;;;72.00;55.75;;;;;18.25;100.00;101624.31;5059200;28;46591;-66
2021/09/03 04:54:25;;;;;;;;;30.00;28.75;;;;;18.30;100.00;101622.38;5058670;28;45514;-66
2021/09/03 04:56:50;;;;;;;;;35.00;31.25;;;;;18.32;100.00;101631.13;5059057;28;45262;-66
2021/09/03 04:59:16;;;;;;;;;38.75;32.75;;;;;18.32;100.00;101623.19;5059182;28;45401;-66
2021/09/03 05:01:41;;;;;;;;;33.50;31.25;;;;;18.12;100.00;101592.13;5058704;28;46565;-66
2021/09/03 05:04:06;;;;;;;;;41.25;34.75;;;;;18.28;100.00;101618.91;5058492;28;45340;-67
2021/09/03 05:06:32;;;;;;;;;38.00;30.75;;;;;18.23;100.00;101615.56;5058773;28;45348;-64
2021/09/03 05:08:57;;;;;;;;;40.75;33.75;;;;;18.26;100.00;101618.09;5058879;28;45286;-65
2021/09/03 05:11:23;;;;;;;;;30.25;29.25;;;;;18.28;100.00;101614.50;5058543;28;46201;-64
2021/09/03 05:13:48;;;;;;;;;36.75;32.00;;;;;18.30;100.00;101623.22;5058502;28;45401;-64
2021/09/03 05:19:35;;;;;;;;;41.00;33.75;;;;;18.27;100.00;101606.63;5058636;28;45391;-64
2021/09/03 05:22:00;;;;;;;;;37.50;32.00;;;;;18.28;100.00;101614.50;5058613;28;46272;-63
2021/09/03 05:24:25;;;;;;;;;38.00;33.75;;;;;18.16;100.00;101595.53;5058082;28;45394;-63
2021/09/03 05:26:51;;;;;;;;;40.00;31.00;;;;;18.33;100.00;101625.81;5058447;28;45351;-63
2021/09/03 05:29:16;;;;;;;;;33.00;30.00;;;;;18.31;100.00;101621.47;5058335;28;45706;-62
2021/09/03 05:31:42;;;;;;;;;38.50;33.75;;;;;18.32;100.00;101623.19;5058229;28;45371;-63
2021/09/03 05:34:07;;;;;;;;;38.25;32.75;;;;;18.31;100.00;101624.09;5057857;28;45470;-63
2021/09/03 05:36:32;;;;;;;;;39.00;33.75;;;;;18.38;100.00;101628.28;5058737;28;45419;-63
2021/09/03 05:38:59;;;;;;;;;45.25;37.25;;;;;18.32;100.00;101618.75;5058344;28;45332;-62
2021/09/03 05:41:24;;;;;;;;;42.50;36.25;;;;;18.31;100.00;101610.88;5056749;28;46463;-63
2021/09/03 05:43:50;;;;;;;;;43.00;33.25;;;;;18.43;100.00;101625.50;5058079;28;45281;-63
2021/09/03 05:49:37;;;;;;;;;41.25;33.50;;;;;18.43;100.00;101618.44;5058139;28;45369;-62
2021/09/03 05:52:02;;;;;;;;;43.00;35.00;;;;;18.47;100.00;101619.19;5057862;28;46300;-63
2021/09/03 05:54:28;;;;;;;;;45.50;37.50;;;;;18.52;100.00;101625.19;5057690;28;45372;-63
2021/09/03 05:56:53;;;;;;;;;47.25;37.50;;;;;18.53;100.00;101624.25;5057952;28;45307;-63
2021/09/03 05:59:19;;;;;;;;;42.75;33.00;;;;;18.52;100.00;101617.25;5058256;28;45379;-63
2021/09/03 06:01:44;;;;;;;;;42.75;35.50;;;;;18.55;100.00;101625.06;5057590;28;46281;-62
2021/09/03 06:04:09;;;;;;;;;38.00;33.00;;;;;18.59;100.00;101622.31;5057619;28;45222;-63
2021/09/03 06:06:35;;;;;;;;;37.25;33.25;;;;;18.61;100.00;101623.13;5057858;28;45285;-63
2021/09/03 06:09:00;;;;;;;;;39.75;34.00;;;;;18.67;100.00;101633.50;5057951;28;45385;-64
2021/09/03 06:11:25;;;;;;;;;40.50;35.25;;;;;18.65;100.00;101622.13;5057520;28;46234;-63
2021/09/03 06:13:55;;;;;;;;;42.50;35.75;;;;;18.75;100.00;101622.66;5057901;28;45234;-62
2021/09/03 06:19:42;;;;;;;;;46.25;36.75;;;;;18.77;100.00;101625.25;5057739;28;45436;-62
2021/09/03 06:22:07;;;;;;;;;35.50;30.75;;;;;18.80;100.00;101612.81;5057155;28;47280;-62
2021/09/03 06:24:34;;;;;;;;;37.75;34.00;;;;;18.89;100.00;101636.28;5057707;28;45320;-63
2021/09/03 06:27:02;;;;;;;;;42.00;33.00;;;;;18.96;100.00;101634.28;5057559;28;45375;-63
2021/09/03 06:29:43;;;;;;;;;48.50;37.75;;;;;19.03;100.00;101635.84;5056240;28;45518;-62
2021/09/03 06:32:20;;;;;;;;;42.25;33.75;;;;;19.06;100.00;101630.44;5057093;28;46536;-63
2021/09/03 06:34:51;;;;;;;;;46.00;37.75;;;;;19.04;100.00;101618.16;5057059;28;45729;-63
2021/09/03 06:37:17;;;;;;;;;42.75;34.25;;;;;19.11;100.00;101628.47;5057412;28;45295;-64
2021/09/03 06:39:43;;;;;;;;;39.00;33.25;;;;;19.14;100.00;101624.84;5057345;28;45475;-62
2021/09/03 06:42:12;;;;;;;;;43.50;34.00;;;;;19.29;100.00;101632.25;5055694;28;46151;-63
2021/09/03 06:44:38;;;;;;;;;39.25;33.75;;;;;19.35;100.00;101624.06;5057282;28;45353;-63
2021/09/03 06:47:07;;;;;;;;;42.50;33.75;;;;;19.42;100.00;101628.22;5057270;28;45286;-63
2021/09/03 06:49:33;;;;;;;;;40.00;33.00;;;;;19.40;100.00;101613.31;5057403;28;45266;-64
2021/09/03 06:52:03;;;;;;;;;34.00;32.00;;;;;19.55;100.00;101628.69;5055867;28;46494;-63
2021/09/03 06:54:31;;;;;;;;;32.25;30.50;;;;;19.55;100.00;101613.66;5057239;28;45377;-64
2021/09/03 06:56:56;;;;;;;;;42.75;33.25;;;;;19.64;100.00;101620.38;5057368;28;45238;-65
2021/09/03 06:59:22;;;;;;;;;37.50;33.00;;;;;19.69;100.00;101615.78;5057408;28;45277;-65
2021/09/03 07:05:11;;;;;;;;;33.75;31.00;;;;;19.88;100.00;101623.88;5056807;28;45391;-64
2021/09/03 07:07:37;;;;;;;;;35.50;32.50;;;;;19.91;100.00;101621.09;5056831;28;45233;-65
2021/09/03 07:10:02;;;;;;;;;31.50;29.25;;;;;19.97;100.00;101628.81;5057079;28;45559;-66
2021/09/03 07:12:28;;;;;;;;;33.00;31.00;;;;;20.05;100.00;101634.69;5056969;28;45762;-65
2021/09/03 07:14:53;;;;;;;;;32.50;30.25;;;;;20.13;100.00;101634.38;5056890;28;45352;-65
2021/09/03 07:17:19;;;;;;;;;35.50;31.00;;;;;20.14;100.00;101622.84;5056316;28;45576;-65
2021/09/03 07:19:44;;;;;;;;;35.50;30.25;;;;;20.25;100.00;101633.91;5056787;28;45393;-65
2021/09/03 07:22:10;;;;;;;;;38.25;33.25;;;;;20.34;100.00;101632.66;5056814;28;45448;-65
2021/09/03 07:24:35;;;;;;;;;34.00;29.00;;;;;20.40;100.00;101632.41;5056606;28;45281;-66
2021/09/03 07:27:01;;;;;;;;;35.25;32.00;;;;;20.45;100.00;101633.13;5056754;28;45281;-66
2021/09/03 07:29:27;;;;;;;;;37.75;33.00;;;;;20.52;100.00;101636.38;5057151;28;45309;-65
2021/09/03 07:35:14;;;;;;;;;43.00;35.25;;;;;20.62;100.00;101624.47;5056322;28;45253;-64
2021/09/03 07:37:41;;;;;;;;;36.00;30.25;;;;;20.76;100.00;101632.69;5056618;28;45856;-64
2021/09/03 07:40:07;;;;;;;;;38.00;32.00;;;;;20.83;100.00;101634.19;5056557;28;45541;-65
2021/09/03 07:42:33;;;;;;;;;39.00;32.50;;;;;20.90;100.00;101618.84;5056440;28;46422;-66
2021/09/03 07:45:00;;;;;;;;;36.50;32.00;;;;;21.02;100.00;101621.81;5056079;28;45360;-65
2021/09/03 07:47:25;;;;;;;;;37.25;33.25;;;;;21.23;100.00;101629.78;5056397;28;45319;-65
2021/09/03 07:49:50;;;;;;;;;40.50;32.00;;;;;21.32;100.00;101622.31;5056546;28;45541;-65
2021/09/03 07:52:16;;;;;;;;;38.00;32.00;;;;;21.54;100.00;101635.47;5056665;28;46603;-65
2021/09/03 07:54:41;;;;;;;;;40.75;32.75;;;;;21.72;100.00;101625.78;5059767;28;45375;-65
2021/09/03 07:57:06;;;;;;;;;35.75;31.00;;;;;21.87;100.00;101618.88;5059805;28;45312;-65
2021/09/03 07:59:32;;;;;;;;;38.50;33.25;;;;;22.07;100.00;101623.28;5058690;28;45531;-67
2021/09/03 08:05:20;;;;;;;;;38.50;34.25;;;;;22.54;100.00;101631.59;5059441;28;45735;-66
2021/09/03 08:07:46;;;;;;;;;33.25;28.75;;;;;22.66;100.00;101631.00;5059854;28;45231;-66
2021/09/03 08:10:13;;;;;;;;;39.75;33.00;;;;;22.87;100.00;101632.59;5075458;28;45187;-65
2021/09/03 08:12:39;;;;;;;;;40.75;33.25;;;;;23.07;100.00;101628.03;5059589;28;46581;-66
2021/09/03 08:15:06;;;;;;;;;34.00;30.75;;;;;23.16;100.00;101617.75;5059506;28;45743;-66
2021/09/03 08:17:32;;;;;;;;;36.25;31.50;;;;;23.42;100.00;101620.84;5059676;28;45402;-69
2021/09/03 08:19:57;;;;;;;;;32.75;27.75;;;;;23.62;100.00;101626.00;5059827;28;45415;-65
2021/09/03 08:22:23;;;;;;;;;32.75;29.25;;;;;23.79;100.00;101622.41;5059494;28;45391;-65
2021/09/03 08:24:48;;;;;;;;;33.50;29.25;;;;;24.00;100.00;101626.53;5041169;28;45270;-66
2021/09/03 08:27:14;;;;;;;;;31.00;28.75;;;;;23.99;100.00;101595.47;5059319;28;45884;-66
2021/09/03 08:29:39;;;;;;;;;29.50;27.25;;;;;24.36;100.00;101623.59;5059462;28;45463;-66
2021/09/03 08:35:26;;;;;;;;;28.75;26.25;;;;;24.86;100.00;101621.56;5058574;28;45356;-66
2021/09/03 08:37:52;;;;;;;;;31.50;27.25;;;;;25.05;100.00;101619.53;5059510;28;45351;-66
2021/09/03 08:40:18;;;;;;;;;30.75;26.00;;;;;25.24;100.00;101609.44;5059161;28;45454;-66
2021/09/03 08:42:44;;;;;;;;;28.50;26.25;;;;;25.45;100.00;101607.25;5059271;28;46397;-66
2021/09/03 08:45:13;;;;;;;;;29.25;25.25;;;;;25.68;100.00;101618.34;5058768;28;45343;-66
2021/09/03 08:47:39;;;;;;;;;27.50;26.75;;;;;25.78;100.00;101596.22;5059154;28;45264;-67
2021/09/03 08:50:08;;;;;;;;;26.00;24.50;;;;;26.10;100.00;101612.91;5059217;28;45567;-66
2021/09/03 08:52:33;;;;;;;;;29.75;26.75;;;;;26.27;100.00;101603.75;5058579;28;45662;-66
2021/09/03 08:54:59;;;;;;;;;28.75;25.00;;;;;26.53;100.00;101600.22;5059083;28;45296;-66
2021/09/03 08:57:24;;;;;;;;;24.75;22.00;;;;;26.77;100.00;101597.69;5059078;28;45465;-66
2021/09/03 08:59:49;;;;;;;;;24.50;22.25;;;;;27.10;100.00;101599.88;5058995;28;45467;-65
2021/09/03 09:05:59;;;;;;;;;22.00;21.25;;;;;27.86;100.00;101603.47;5057862;28;45364;-66
2021/09/03 09:08:27;;;;;;;;;22.75;20.75;;;;;28.12;100.00;101593.47;5058769;28;45405;-66
2021/09/03 09:10:55;;;;;;;;;22.75;21.50;;;;;28.48;100.00;101600.63;5058642;28;45321;-66
2021/09/03 09:13:26;;;;;;;;;23.00;21.50;;;;;28.82;100.00;101594.38;5058598;28;47237;-66
2021/09/03 09:15:59;;;;;;;;;25.25;24.50;;;;;29.26;99.90;101603.53;5058757;28;45282;-66
2021/09/03 09:18:36;;;;;;;;;21.50;21.25;;;;;29.69;97.83;101597.41;5058656;28;45289;-66
2021/09/03 09:21:15;;;;;;;;;23.00;21.50;;;;;30.05;95.38;101583.66;5058779;28;45312;-70
2021/09/03 09:23:42;;;;;;;;;20.75;18.50;;;;;30.56;94.19;101584.81;5058379;28;46680;-66
2021/09/03 09:26:11;;;;;;;;;20.25;18.75;;;;;31.07;91.36;101583.03;5058549;28;45478;-66
2021/09/03 09:28:38;;;;;;;;;22.75;21.75;;;;;31.64;89.89;101583.41;5058429;28;45336;-66
2021/09/03 09:31:03;;;;;;;;;21.75;19.25;;;;;32.26;88.20;101574.19;5058469;28;45291;-65
2021/09/03 09:33:29;;;;;;;;;19.50;18.00;;;;;32.96;84.67;101585.63;5058407;28;46574;-65
2021/09/03 09:35:57;;;;;;;;;20.50;18.25;;;;;33.58;81.52;101571.44;5058101;28;45329;-64
2021/09/03 09:38:28;;;;;;;;;23.25;20.75;;;;;34.38;78.63;101577.91;5058247;28;45281;-65
2021/09/03 09:40:56;;;;;;;;;23.00;17.75;;;;;35.02;76.17;101584.84;5058373;28;45400;-65
2021/09/03 09:43:29;;;;;;;;;16.75;15.75;;;;;35.54;73.90;101574.78;5058105;28;47438;-65
2021/09/03 09:46:10;;;;;;;;;18.50;18.50;;;;;35.93;71.38;101585.09;5058118;28;45440;-66
2021/09/03 09:48:50;;;;;;;;;18.00;16.50;;;;;35.94;70.60;101575.91;5058207;28;45277;-65
2021/09/03 09:51:23;;;;;;;;;17.50;15.75;;;;;35.76;70.89;101577.88;5058474;28;45525;-66
2021/09/03 09:54:09;;;;;;;;;18.25;17.00;;;;;35.40;70.29;101577.28;5057660;28;46466;-66
2021/09/03 09:56:36;;;;;;;;;17.25;15.75;;;;;35.04;70.05;101571.09;5057950;28;45403;-66
2021/09/03 09:59:04;;;;;;;;;19.75;18.25;;;;;34.73;69.75;101568.84;5058006;28;45280;-69
2021/09/03 10:01:33;;;;;;;;;18.25;16.25;;;;;34.45;69.22;101564.59;5057956;28;45294;-66
2021/09/03 10:04:03;;;;;;;;;17.50;16.50;;;;;34.26;69.37;101565.56;5057592;28;46673;-66
2021/09/03 10:06:30;;;;;;;;;16.50;14.75;;;;;34.42;68.15;101556.78;5039644;28;45529;-67
2021/09/03 10:08:59;;;;;;;;;14.75;14.25;;;;;34.98;67.53;101556.31;5058154;28;45594;-65
2021/09/03 10:11:25;;;;;;;;;16.50;16.25;;;;;35.78;66.67;101565.84;5058032;28;45633;-66
2021/09/03 10:13:51;;;;;;;;;17.25;15.75;;;;;36.37;63.94;101560.34;5057392;28;45617;-66
2021/09/03 10:16:17;;;;;;;;;17.00;16.75;;;;;36.87;62.38;101562.03;5057614;28;45359;-65
2021/09/03 10:18:46;;;;;;;;;16.25;15.25;;;;;37.34;58.30;101549.28;5057632;28;45325;-66
2021/09/03 10:21:12;;;;;;;;;13.50;13.50;;;;;38.12;57.54;101555.66;5058114;28;45272;-66
2021/09/03 10:24:08;;;;;;;;;16.50;15.75;;;;;38.98;54.50;101551.66;5057217;28;46184;-67
2021/09/03 10:26:39;;;;;;;;;17.25;16.50;;;;;39.76;53.32;101543.66;5057468;28;45267;-66
2021/09/03 10:29:19;;;;;;;;;15.25;15.00;;;;;40.49;50.73;101541.63;5057577;28;45303;-66
2021/09/03 10:32:06;;;;;;;;;17.50;16.00;;;;;41.09;49.48;101555.75;5057615;28;45426;-67
2021/09/03 10:34:40;;;;;;;;;13.25;12.50;;;;;41.57;47.26;101549.22;5057054;28;46993;-66
2021/09/03 10:37:06;;;;;;;;;14.00;13.75;;;;;41.97;47.07;101545.78;5057412;28;45366;-67
2021/09/03 10:39:41;;;;;;;;;15.50;15.25;;;;;42.51;44.50;101548.38;5057284;28;45322;-66
2021/09/03 10:42:07;;;;;;;;;14.50;14.50;;;;;42.98;43.32;101535.41;5057427;28;45442;-67
2021/09/03 10:45:01;;;;;;;;;20.50;18.00;;;;;43.61;41.31;101546.56;5057402;28;46042;-66
2021/09/03 10:47:58;;;;;;;;;17.00;16.00;;;;;44.17;40.15;101540.31;5056951;28;45707;-65
2021/09/03 10:50:34;;;;;;;;;16.50;16.25;;;;;44.82;38.55;101546.31;5057387;28;45450;-66
2021/09/03 10:53:05;;;;;;;;;14.25;13.50;;;;;45.40;37.90;101540.31;5057415;28;45412;-66
2021/09/03 10:56:08;;;;;;;;;14.75;13.75;;;;;45.95;36.77;101540.19;5056900;28;46444;-66
2021/09/03 10:58:37;;;;;;;;;12.00;11.00;;;;;46.28;35.72;101529.44;5055457;28;45638;-66
2021/09/03 11:04:25;;;;;;;;;14.50;13.00;;;;;46.67;33.56;101516.84;5057067;28;45246;-67
2021/09/03 11:06:53;;;;;;;;;14.75;14.75;;;;;46.93;33.20;101521.03;5056475;28;46328;-66
2021/09/03 11:09:22;;;;;;;;;14.00;13.50;;;;;47.37;33.16;101518.63;5056653;28;45538;-67
2021/09/03 11:12:09;;;;;;;;;12.75;12.25;;;;;48.04;31.49;101515.16;5038728;28;45361;-66
2021/09/03 11:14:36;;;;;;;;;14.75;12.75;;;;;48.41;30.82;101515.47;5057052;28;45479;-66
2021/09/03 11:20:22;;;;;;;;;13.25;12.75;;;;;48.88;29.25;101507.53;5056690;28;45468;-67
2021/09/03 11:22:48;;;;;;;;;15.00;13.00;;;;;48.98;27.86;101501.31;5057122;28;45200;-68
2021/09/03 11:25:13;;;;;;;;;12.50;12.25;;;;;48.89;28.72;101494.50;5057033;28;45446;-67
2021/09/03 11:27:41;;;;;;;;;15.25;13.50;;;;;48.74;28.20;101481.31;5057470;28;46356;-67
2021/09/03 11:30:17;;;;;;;;;13.75;13.75;;;;;48.73;27.89;101499.03;5060102;28;45549;-66
2021/09/03 11:36:04;;;;;;;;;15.25;14.00;;;;;49.06;28.40;101478.66;5047342;28;45330;-66
2021/09/03 11:38:29;;;;;;;;;13.50;13.50;;;;;49.37;27.60;101468.75;5039929;28;46197;-66
2021/09/03 11:40:55;;;;;;;;;13.50;10.75;;;;;49.69;27.20;101492.94;5038531;28;45531;-65
2021/09/03 11:43:20;;;;;;;;;13.25;13.25;;;;;49.82;27.27;101487.78;5039879;28;45419;-65
2021/09/03 11:52:32;;;;;;;;;13.25;13.25;;;;;48.69;25.50;101472.91;4997887;28;45475;-65
2021/09/03 11:54:59;;;;;;;;;16.75;15.50;;;;;48.57;25.91;101469.38;4998268;28;45335;-68
2021/09/03 11:57:28;;;;;;;;;16.50;16.50;;;;;48.31;26.02;101460.72;4998146;28;45431;-66
2021/09/03 12:00:00;;;;;;;;;14.75;13.00;;;;;48.13;26.42;101460.97;4997635;28;47010;-66
2021/09/03 12:02:31;;;;;;;;;14.00;14.00;;;;;48.05;26.66;101459.50;4997624;28;45633;-66
2021/09/03 12:04:58;;;;;;;;;13.75;13.75;;;;;47.91;26.38;101455.38;4997780;28;45352;-65
2021/09/03 12:07:24;;;;;;;;;14.25;13.25;;;;;47.79;26.74;101457.38;4998160;28;45562;-67
2021/09/03 12:09:55;;;;;;;;;15.25;14.00;;;;;47.74;26.27;101458.13;4997404;28;47044;-66
2021/09/03 12:12:25;;;;;;;;;12.75;12.25;;;;;47.87;27.06;101455.06;4997697;28;45287;-66
2021/09/03 12:15:02;;;;;;;;;15.50;15.00;;;;;47.96;26.30;101451.84;4997798;28;45375;-65
2021/09/03 12:17:42;;;;;;;;;15.75;13.25;;;;;48.05;26.20;101450.34;4997626;28;45504;-65
2021/09/03 12:20:16;;;;;;;;;13.25;12.75;;;;;48.37;26.25;101450.53;4997481;28;46169;-66
2021/09/03 12:22:54;;;;;;;;;12.00;12.00;;;;;48.82;25.50;101443.94;4997370;28;45503;-65
2021/09/03 12:25:31;;;;;;;;;14.00;14.00;;;;;49.26;25.36;101455.84;5012667;28;45470;-66